Terminal Aerodrome Forecast
Issued by NWS Louisville, KY

Home | Current Version | Previous Version | Text Only | Print | Product List | Glossary On
Versions: 1 2 3 4 5 6 7 8 9 10 11 12 13 14 15 16 17 18 19 20 21
452
FTUS43 KLMK 082220 AAB
TAFSDF
TAF AMD
KSDF 082220Z 0822/0924 28011G22KT 4SM -SHSN BKN025
      TEMPO 0822/0901 2SM -SN BKN015
     FM090100 29012KT 2SM -SN BR BKN022 OVC035
     FM090500 28010KT 6SM BR VCSH OVC022
     FM091200 28010KT 6SM BR VCSH OVC015=

USA.gov is the U.S. government's official web portal to all federal, state and local government web resources and services.